sensor_id;sensor_type;location;lat;lon;timestamp;temperature;humidity
318;DHT22;146;53.448;10.228;2023-02-26T00:01:53;0.10;1.00
318;DHT22;146;53.448;10.228;2023-02-26T00:04:27;0.10;1.00
318;DHT22;146;53.448;10.228;2023-02-26T00:07:06;0.00;1.00
318;DHT22;146;53.448;10.228;2023-02-26T00:09:39;0.00;1.00
318;DHT22;146;53.448;10.228;2023-02-26T00:12:09;-0.10;1.00
318;DHT22;146;53.448;10.228;2023-02-26T00:14:37;-0.10;1.00
318;DHT22;146;53.448;10.228;2023-02-26T00:17:23;-0.10;1.00
318;DHT22;146;53.448;10.228;2023-02-26T00:19:58;0.00;1.00
318;DHT22;146;53.448;10.228;2023-02-26T00:22:26;0.00;1.00
318;DHT22;146;53.448;10.228;2023-02-26T00:24:54;0.10;1.00
318;DHT22;146;53.448;10.228;2023-02-26T00:27:21;0.10;1.00
318;DHT22;146;53.448;10.228;2023-02-26T00:29:48;0.20;1.00
318;DHT22;146;53.448;10.228;2023-02-26T00:32:16;0.20;1.00
318;DHT22;146;53.448;10.228;2023-02-26T00:34:47;0.20;1.00
318;DHT22;146;53.448;10.228;2023-02-26T00:37:41;0.20;1.00
318;DHT22;146;53.448;10.228;2023-02-26T00:40:21;0.10;1.00
318;DHT22;146;53.448;10.228;2023-02-26T00:42:53;0.10;1.00
318;DHT22;146;53.448;10.228;2023-02-26T00:45:23;0.10;1.00
318;DHT22;146;53.448;10.228;2023-02-26T00:48:12;0.10;1.00
318;DHT22;146;53.448;10.228;2023-02-26T00:50:47;0.10;1.00
318;DHT22;146;53.448;10.228;2023-02-26T00:53:30;0.10;1.00
318;DHT22;146;53.448;10.228;2023-02-26T00:56:00;0.00;1.00
318;DHT22;146;53.448;10.228;2023-02-26T00:58:27;-0.10;1.00
318;DHT22;146;53.448;10.228;2023-02-26T01:00:54;-0.10;1.00
318;DHT22;146;53.448;10.228;2023-02-26T01:03:21;-0.10;1.00
318;DHT22;146;53.448;10.228;2023-02-26T01:05:51;-0.30;1.00
318;DHT22;146;53.448;10.228;2023-02-26T01:08:28;-0.30;1.00
318;DHT22;146;53.448;10.228;2023-02-26T01:11:01;-0.30;1.00
318;DHT22;146;53.448;10.228;2023-02-26T01:13:31;-0.40;1.00
318;DHT22;146;53.448;10.228;2023-02-26T01:16:04;-0.40;1.00
318;DHT22;146;53.448;10.228;2023-02-26T01:18:40;-0.50;1.00
318;DHT22;146;53.448;10.228;2023-02-26T01:21:16;-0.50;1.00
318;DHT22;146;53.448;10.228;2023-02-26T01:23:49;-0.60;1.00
318;DHT22;146;53.448;10.228;2023-02-26T01:26:21;-0.60;1.00
318;DHT22;146;53.448;10.228;2023-02-26T01:28:55;-0.60;1.00
318;DHT22;146;53.448;10.228;2023-02-26T01:31:39;-0.50;1.00
318;DHT22;146;53.448;10.228;2023-02-26T01:34:14;-0.50;1.00
318;DHT22;146;53.448;10.228;2023-02-26T01:36:57;-0.60;1.00
318;DHT22;146;53.448;10.228;2023-02-26T01:39:30;-0.60;1.00
318;DHT22;146;53.448;10.228;2023-02-26T01:42:07;-0.60;1.00
318;DHT22;146;53.448;10.228;2023-02-26T01:44:41;-0.50;1.00
318;DHT22;146;53.448;10.228;2023-02-26T01:47:34;-0.60;1.00
318;DHT22;146;53.448;10.228;2023-02-26T01:50:13;-0.60;1.00
318;DHT22;146;53.448;10.228;2023-02-26T01:55:55;-0.70;1.00
318;DHT22;146;53.448;10.228;2023-02-26T01:58:35;-0.70;1.00
318;DHT22;146;53.448;10.228;2023-02-26T02:01:03;-0.70;1.00
318;DHT22;146;53.448;10.228;2023-02-26T02:03:34;-0.70;1.00
318;DHT22;146;53.448;10.228;2023-02-26T02:06:14;-0.70;1.00
318;DHT22;146;53.448;10.228;2023-02-26T02:08:48;-0.70;1.00
318;DHT22;146;53.448;10.228;2023-02-26T02:11:18;-0.70;1.00
318;DHT22;146;53.448;10.228;2023-02-26T02:13:58;-0.70;1.00
318;DHT22;146;53.448;10.228;2023-02-26T02:16:33;-0.60;1.00
318;DHT22;146;53.448;10.228;2023-02-26T02:22:34;-0.50;1.00
318;DHT22;146;53.448;10.228;2023-02-26T02:25:19;-0.60;1.00
318;DHT22;146;53.448;10.228;2023-02-26T02:28:01;-0.70;1.00
318;DHT22;146;53.448;10.228;2023-02-26T02:30:36;-0.60;1.00
318;DHT22;146;53.448;10.228;2023-02-26T02:33:12;-0.70;1.00
318;DHT22;146;53.448;10.228;2023-02-26T02:35:51;-0.70;1.00
318;DHT22;146;53.448;10.228;2023-02-26T02:38:25;-0.60;1.00
318;DHT22;146;53.448;10.228;2023-02-26T02:41:02;-0.70;1.00
318;DHT22;146;53.448;10.228;2023-02-26T02:43:32;-0.60;1.00
318;DHT22;146;53.448;10.228;2023-02-26T02:46:04;-0.70;1.00
318;DHT22;146;53.448;10.228;2023-02-26T02:48:37;-0.70;1.00
318;DHT22;146;53.448;10.228;2023-02-26T02:51:07;-0.70;1.00
318;DHT22;146;53.448;10.228;2023-02-26T02:53:46;-0.70;1.00
318;DHT22;146;53.448;10.228;2023-02-26T02:56:16;-0.70;1.00
318;DHT22;146;53.448;10.228;2023-02-26T02:58:49;-0.70;1.00
318;DHT22;146;53.448;10.228;2023-02-26T03:01:18;-0.70;1.00
318;DHT22;146;53.448;10.228;2023-02-26T03:04:01;-0.70;1.00
318;DHT22;146;53.448;10.228;2023-02-26T03:06:28;-0.70;1.00
318;DHT22;146;53.448;10.228;2023-02-26T03:08:55;-0.70;1.00
318;DHT22;146;53.448;10.228;2023-02-26T03:11:22;-0.60;1.00
318;DHT22;146;53.448;10.228;2023-02-26T03:13:51;-0.60;1.00
318;DHT22;146;53.448;10.228;2023-02-26T03:16:30;-0.60;1.00
318;DHT22;146;53.448;10.228;2023-02-26T03:19:09;-0.60;1.00
318;DHT22;146;53.448;10.228;2023-02-26T03:21:49;-0.50;1.00
318;DHT22;146;53.448;10.228;2023-02-26T03:24:30;-0.50;1.00
318;DHT22;146;53.448;10.228;2023-02-26T03:27:02;-0.60;1.00
318;DHT22;146;53.448;10.228;2023-02-26T03:29:41;-0.60;1.00
318;DHT22;146;53.448;10.228;2023-02-26T03:32:20;-0.60;1.00
318;DHT22;146;53.448;10.228;2023-02-26T03:34:59;-0.60;1.00
318;DHT22;146;53.448;10.228;2023-02-26T03:37:36;-0.70;1.00
318;DHT22;146;53.448;10.228;2023-02-26T03:40:08;-0.60;1.00
318;DHT22;146;53.448;10.228;2023-02-26T03:42:41;-0.60;1.00
318;DHT22;146;53.448;10.228;2023-02-26T03:45:15;-0.60;1.00
318;DHT22;146;53.448;10.228;2023-02-26T03:47:49;-0.60;1.00
318;DHT22;146;53.448;10.228;2023-02-26T03:50:27;-0.60;1.00
318;DHT22;146;53.448;10.228;2023-02-26T03:52:57;-0.60;1.00
318;DHT22;146;53.448;10.228;2023-02-26T03:55:28;-0.50;1.00
318;DHT22;146;53.448;10.228;2023-02-26T03:58:02;-0.50;1.00
318;DHT22;146;53.448;10.228;2023-02-26T04:00:33;-0.50;1.00
318;DHT22;146;53.448;10.228;2023-02-26T04:03:07;-0.60;1.00
318;DHT22;146;53.448;10.228;2023-02-26T04:05:47;-0.60;1.00
318;DHT22;146;53.448;10.228;2023-02-26T04:08:15;-0.60;1.00
318;DHT22;146;53.448;10.228;2023-02-26T04:11:03;-0.70;1.00
318;DHT22;146;53.448;10.228;2023-02-26T04:13:49;-0.70;1.00
318;DHT22;146;53.448;10.228;2023-02-26T04:16:19;-0.70;1.00
318;DHT22;146;53.448;10.228;2023-02-26T04:18:55;-0.70;1.00
318;DHT22;146;53.448;10.228;2023-02-26T04:21:26;-0.70;1.00
318;DHT22;146;53.448;10.228;2023-02-26T04:23:56;-0.80;1.00
318;DHT22;146;53.448;10.228;2023-02-26T04:26:25;-0.80;1.00
318;DHT22;146;53.448;10.228;2023-02-26T04:28:55;-0.90;1.00
318;DHT22;146;53.448;10.228;2023-02-26T04:31:22;-0.80;1.00
318;DHT22;146;53.448;10.228;2023-02-26T04:33:48;-0.80;1.00
318;DHT22;146;53.448;10.228;2023-02-26T04:36:18;-0.80;1.00
318;DHT22;146;53.448;10.228;2023-02-26T04:38:46;-0.80;1.00
318;DHT22;146;53.448;10.228;2023-02-26T04:41:13;-0.70;1.00
318;DHT22;146;53.448;10.228;2023-02-26T04:43:40;-0.80;1.00
318;DHT22;146;53.448;10.228;2023-02-26T04:46:16;-0.80;1.00
318;DHT22;146;53.448;10.228;2023-02-26T04:48:43;-0.80;1.00
318;DHT22;146;53.448;10.228;2023-02-26T04:51:15;-0.80;1.00
318;DHT22;146;53.448;10.228;2023-02-26T04:53:47;-0.80;1.00
318;DHT22;146;53.448;10.228;2023-02-26T04:56:16;-0.80;1.00
318;DHT22;146;53.448;10.228;2023-02-26T04:58:46;-0.80;1.00
318;DHT22;146;53.448;10.228;2023-02-26T05:01:16;-0.90;1.00
318;DHT22;146;53.448;10.228;2023-02-26T05:03:42;-0.90;1.00
318;DHT22;146;53.448;10.228;2023-02-26T05:06:18;-0.90;1.00
318;DHT22;146;53.448;10.228;2023-02-26T05:08:46;-1.00;1.00
318;DHT22;146;53.448;10.228;2023-02-26T05:11:19;-0.90;1.00
318;DHT22;146;53.448;10.228;2023-02-26T05:13:46;-1.00;1.00
318;DHT22;146;53.448;10.228;2023-02-26T05:16:16;-0.90;1.00
318;DHT22;146;53.448;10.228;2023-02-26T05:18:43;-0.90;1.00
318;DHT22;146;53.448;10.228;2023-02-26T05:21:09;-1.00;1.00
318;DHT22;146;53.448;10.228;2023-02-26T05:23:36;-1.00;1.00
318;DHT22;146;53.448;10.228;2023-02-26T05:26:04;-1.00;1.00
318;DHT22;146;53.448;10.228;2023-02-26T05:28:31;-1.00;1.00
318;DHT22;146;53.448;10.228;2023-02-26T05:31:01;-1.00;1.00
318;DHT22;146;53.448;10.228;2023-02-26T05:33:27;-1.00;1.00
318;DHT22;146;53.448;10.228;2023-02-26T05:35:54;-1.00;1.00
318;DHT22;146;53.448;10.228;2023-02-26T05:38:25;-1.00;1.00
318;DHT22;146;53.448;10.228;2023-02-26T05:40:58;-0.90;1.00
318;DHT22;146;53.448;10.228;2023-02-26T05:43:26;-0.90;1.00
318;DHT22;146;53.448;10.228;2023-02-26T05:45:54;-0.90;1.00
318;DHT22;146;53.448;10.228;2023-02-26T05:48:26;-0.90;1.00
318;DHT22;146;53.448;10.228;2023-02-26T05:50:53;-0.90;1.00
318;DHT22;146;53.448;10.228;2023-02-26T05:53:23;-1.00;1.00
318;DHT22;146;53.448;10.228;2023-02-26T05:55:56;-1.00;1.00
318;DHT22;146;53.448;10.228;2023-02-26T05:58:30;-1.00;1.00
318;DHT22;146;53.448;10.228;2023-02-26T06:01:01;-1.00;1.00
318;DHT22;146;53.448;10.228;2023-02-26T06:03:28;-1.00;1.00
318;DHT22;146;53.448;10.228;2023-02-26T06:05:58;-1.10;1.00
318;DHT22;146;53.448;10.228;2023-02-26T06:08:27;-1.00;1.00
318;DHT22;146;53.448;10.228;2023-02-26T06:10:54;-1.00;1.00
318;DHT22;146;53.448;10.228;2023-02-26T06:13:21;-1.10;1.00
318;DHT22;146;53.448;10.228;2023-02-26T06:15:50;-1.10;1.00
318;DHT22;146;53.448;10.228;2023-02-26T06:18:20;-1.00;1.00
318;DHT22;146;53.448;10.228;2023-02-26T06:20:47;-1.00;1.00
318;DHT22;146;53.448;10.228;2023-02-26T06:23:17;-1.10;1.00
318;DHT22;146;53.448;10.228;2023-02-26T06:25:44;-1.20;1.00
318;DHT22;146;53.448;10.228;2023-02-26T06:28:11;-1.20;1.00
318;DHT22;146;53.448;10.228;2023-02-26T06:30:44;-1.20;1.00
318;DHT22;146;53.448;10.228;2023-02-26T06:33:12;-1.20;1.00
318;DHT22;146;53.448;10.228;2023-02-26T06:35:39;-1.10;1.00
318;DHT22;146;53.448;10.228;2023-02-26T06:38:08;-1.10;1.00
318;DHT22;146;53.448;10.228;2023-02-26T06:40:40;-1.20;1.00
318;DHT22;146;53.448;10.228;2023-02-26T06:43:10;-1.10;1.00
318;DHT22;146;53.448;10.228;2023-02-26T06:45:40;-1.20;1.00
318;DHT22;146;53.448;10.228;2023-02-26T06:48:17;-1.10;1.00
318;DHT22;146;53.448;10.228;2023-02-26T06:50:46;-1.10;1.00
318;DHT22;146;53.448;10.228;2023-02-26T06:53:13;-1.10;1.00
318;DHT22;146;53.448;10.228;2023-02-26T06:55:42;-1.10;1.00
318;DHT22;146;53.448;10.228;2023-02-26T06:58:12;-1.10;1.00
318;DHT22;146;53.448;10.228;2023-02-26T07:00:39;-1.20;1.00
318;DHT22;146;53.448;10.228;2023-02-26T07:03:06;-1.10;1.00
318;DHT22;146;53.448;10.228;2023-02-26T07:05:46;-1.00;1.00
318;DHT22;146;53.448;10.228;2023-02-26T07:08:16;-1.00;1.00
318;DHT22;146;53.448;10.228;2023-02-26T07:10:45;-1.00;1.00
318;DHT22;146;53.448;10.228;2023-02-26T07:13:14;-1.00;1.00
318;DHT22;146;53.448;10.228;2023-02-26T07:15:43;-1.00;1.00
318;DHT22;146;53.448;10.228;2023-02-26T07:18:10;-1.00;1.00
318;DHT22;146;53.448;10.228;2023-02-26T07:20:44;-1.10;1.00
318;DHT22;146;53.448;10.228;2023-02-26T07:23:24;-1.00;1.00
318;DHT22;146;53.448;10.228;2023-02-26T07:25:57;-1.00;1.00
318;DHT22;146;53.448;10.228;2023-02-26T07:28:23;-0.90;1.00
318;DHT22;146;53.448;10.228;2023-02-26T07:30:52;-0.80;1.00
318;DHT22;146;53.448;10.228;2023-02-26T07:33:20;-0.80;1.00
318;DHT22;146;53.448;10.228;2023-02-26T07:35:51;-0.70;1.00
318;DHT22;146;53.448;10.228;2023-02-26T07:38:18;-0.60;1.00
318;DHT22;146;53.448;10.228;2023-02-26T07:40:44;-0.50;1.00
318;DHT22;146;53.448;10.228;2023-02-26T07:43:11;-0.40;1.00
318;DHT22;146;53.448;10.228;2023-02-26T07:45:38;-0.20;1.00
318;DHT22;146;53.448;10.228;2023-02-26T07:48:05;-0.10;1.00
318;DHT22;146;53.448;10.228;2023-02-26T07:50:37;-0.10;1.00
318;DHT22;146;53.448;10.228;2023-02-26T07:53:06;0.00;1.00
318;DHT22;146;53.448;10.228;2023-02-26T07:55:32;-0.10;1.00
318;DHT22;146;53.448;10.228;2023-02-26T07:58:07;-0.10;1.00
318;DHT22;146;53.448;10.228;2023-02-26T08:00:37;0.10;1.00
318;DHT22;146;53.448;10.228;2023-02-26T08:03:11;0.20;1.00
318;DHT22;146;53.448;10.228;2023-02-26T08:05:39;0.20;1.00
318;DHT22;146;53.448;10.228;2023-02-26T08:08:21;0.20;1.00
318;DHT22;146;53.448;10.228;2023-02-26T08:10:54;0.20;1.00
318;DHT22;146;53.448;10.228;2023-02-26T08:13:24;0.10;1.00
318;DHT22;146;53.448;10.228;2023-02-26T08:15:51;0.10;1.00
318;DHT22;146;53.448;10.228;2023-02-26T08:18:27;0.10;1.00
318;DHT22;146;53.448;10.228;2023-02-26T08:21:00;0.10;1.00
318;DHT22;146;53.448;10.228;2023-02-26T08:23:31;0.10;1.00
318;DHT22;146;53.448;10.228;2023-02-26T08:26:02;0.20;1.00
318;DHT22;146;53.448;10.228;2023-02-26T08:28:29;0.20;1.00
318;DHT22;146;53.448;10.228;2023-02-26T08:30:56;0.30;1.00
318;DHT22;146;53.448;10.228;2023-02-26T08:33:26;0.30;1.00
318;DHT22;146;53.448;10.228;2023-02-26T08:35:52;0.30;1.00
318;DHT22;146;53.448;10.228;2023-02-26T08:38:23;0.40;1.00
318;DHT22;146;53.448;10.228;2023-02-26T08:40:51;0.50;1.00
318;DHT22;146;53.448;10.228;2023-02-26T08:43:18;0.70;1.00
318;DHT22;146;53.448;10.228;2023-02-26T08:45:45;0.70;1.00
318;DHT22;146;53.448;10.228;2023-02-26T08:48:19;0.80;1.00
318;DHT22;146;53.448;10.228;2023-02-26T08:50:46;0.90;1.00
318;DHT22;146;53.448;10.228;2023-02-26T08:53:13;0.90;1.00
318;DHT22;146;53.448;10.228;2023-02-26T08:55:51;1.00;1.00
318;DHT22;146;53.448;10.228;2023-02-26T08:58:19;1.00;1.00
318;DHT22;146;53.448;10.228;2023-02-26T09:00:46;1.00;1.00
318;DHT22;146;53.448;10.228;2023-02-26T09:03:19;1.00;1.00
318;DHT22;146;53.448;10.228;2023-02-26T09:05:46;1.00;1.00
318;DHT22;146;53.448;10.228;2023-02-26T09:08:15;1.00;1.00
318;DHT22;146;53.448;10.228;2023-02-26T09:10:45;1.20;1.00
318;DHT22;146;53.448;10.228;2023-02-26T09:13:17;1.20;1.00
318;DHT22;146;53.448;10.228;2023-02-26T09:15:44;1.20;1.00
318;DHT22;146;53.448;10.228;2023-02-26T09:18:17;1.30;1.00
318;DHT22;146;53.448;10.228;2023-02-26T09:20:46;1.20;1.00
318;DHT22;146;53.448;10.228;2023-02-26T09:23:13;1.30;1.00
318;DHT22;146;53.448;10.228;2023-02-26T09:25:50;1.30;1.00
318;DHT22;146;53.448;10.228;2023-02-26T09:28:19;1.40;1.00
318;DHT22;146;53.448;10.228;2023-02-26T09:30:46;1.40;1.00
318;DHT22;146;53.448;10.228;2023-02-26T09:33:19;1.40;1.00
318;DHT22;146;53.448;10.228;2023-02-26T09:36:02;1.40;1.00
318;DHT22;146;53.448;10.228;2023-02-26T09:38:29;1.50;1.00
318;DHT22;146;53.448;10.228;2023-02-26T09:41:06;1.60;1.00
318;DHT22;146;53.448;10.228;2023-02-26T09:43:53;1.60;1.00
318;DHT22;146;53.448;10.228;2023-02-26T09:46:30;1.70;1.00
318;DHT22;146;53.448;10.228;2023-02-26T09:49:10;1.70;1.00
318;DHT22;146;53.448;10.228;2023-02-26T09:51:44;1.70;1.00
318;DHT22;146;53.448;10.228;2023-02-26T09:54:18;1.80;1.00
318;DHT22;146;53.448;10.228;2023-02-26T09:56:46;1.80;1.00
318;DHT22;146;53.448;10.228;2023-02-26T09:59:17;1.80;1.00
318;DHT22;146;53.448;10.228;2023-02-26T10:01:50;1.90;1.00
318;DHT22;146;53.448;10.228;2023-02-26T10:04:28;2.00;1.00
318;DHT22;146;53.448;10.228;2023-02-26T10:07:06;2.00;1.00
318;DHT22;146;53.448;10.228;2023-02-26T10:09:53;2.10;1.00
318;DHT22;146;53.448;10.228;2023-02-26T10:12:25;2.20;1.00
318;DHT22;146;53.448;10.228;2023-02-26T10:14:57;2.30;1.00
318;DHT22;146;53.448;10.228;2023-02-26T10:17:31;2.50;1.00
318;DHT22;146;53.448;10.228;2023-02-26T10:20:02;2.60;1.00
318;DHT22;146;53.448;10.228;2023-02-26T10:22:33;2.70;1.00
318;DHT22;146;53.448;10.228;2023-02-26T10:25:12;2.60;1.00
318;DHT22;146;53.448;10.228;2023-02-26T10:27:48;2.50;1.00
318;DHT22;146;53.448;10.228;2023-02-26T10:30:23;2.50;1.00
318;DHT22;146;53.448;10.228;2023-02-26T10:33:00;2.50;1.00
318;DHT22;146;53.448;10.228;2023-02-26T10:35:42;2.60;1.00
318;DHT22;146;53.448;10.228;2023-02-26T10:38:11;2.70;1.00
318;DHT22;146;53.448;10.228;2023-02-26T10:40:43;2.80;1.00
318;DHT22;146;53.448;10.228;2023-02-26T10:43:17;2.80;1.00
318;DHT22;146;53.448;10.228;2023-02-26T10:46:14;2.90;1.00
318;DHT22;146;53.448;10.228;2023-02-26T10:48:54;3.00;1.00
318;DHT22;146;53.448;10.228;2023-02-26T10:51:27;3.10;1.00
318;DHT22;146;53.448;10.228;2023-02-26T10:54:02;3.10;1.00
318;DHT22;146;53.448;10.228;2023-02-26T10:56:31;3.20;1.00
318;DHT22;146;53.448;10.228;2023-02-26T10:59:01;3.20;1.00
318;DHT22;146;53.448;10.228;2023-02-26T11:01:30;3.20;1.00
318;DHT22;146;53.448;10.228;2023-02-26T11:04:01;3.30;1.00
318;DHT22;146;53.448;10.228;2023-02-26T11:06:31;3.30;1.00
318;DHT22;146;53.448;10.228;2023-02-26T11:09:00;3.40;1.00
318;DHT22;146;53.448;10.228;2023-02-26T11:11:40;3.20;1.00
318;DHT22;146;53.448;10.228;2023-02-26T11:14:14;3.20;1.00
318;DHT22;146;53.448;10.228;2023-02-26T11:16:46;3.10;1.00
318;DHT22;146;53.448;10.228;2023-02-26T11:19:15;3.10;1.00
318;DHT22;146;53.448;10.228;2023-02-26T11:21:46;3.00;1.00
318;DHT22;146;53.448;10.228;2023-02-26T11:24:17;3.00;1.00
318;DHT22;146;53.448;10.228;2023-02-26T11:26:48;3.10;1.00
318;DHT22;146;53.448;10.228;2023-02-26T11:29:24;3.30;1.00
318;DHT22;146;53.448;10.228;2023-02-26T11:31:58;3.40;1.00
318;DHT22;146;53.448;10.228;2023-02-26T11:34:28;3.60;1.00
318;DHT22;146;53.448;10.228;2023-02-26T11:36:58;3.80;1.00
318;DHT22;146;53.448;10.228;2023-02-26T11:39:27;3.90;1.00
318;DHT22;146;53.448;10.228;2023-02-26T11:41:56;4.00;1.00
318;DHT22;146;53.448;10.228;2023-02-26T11:44:33;3.90;1.00
318;DHT22;146;53.448;10.228;2023-02-26T11:47:04;3.90;1.00
318;DHT22;146;53.448;10.228;2023-02-26T11:49:32;4.20;1.00
318;DHT22;146;53.448;10.228;2023-02-26T11:52:14;4.50;1.00
318;DHT22;146;53.448;10.228;2023-02-26T11:54:43;4.70;1.00
318;DHT22;146;53.448;10.228;2023-02-26T11:57:16;4.90;1.00
318;DHT22;146;53.448;10.228;2023-02-26T11:59:47;4.80;1.00
318;DHT22;146;53.448;10.228;2023-02-26T12:02:23;4.80;1.00
318;DHT22;146;53.448;10.228;2023-02-26T12:04:59;4.60;1.00
318;DHT22;146;53.448;10.228;2023-02-26T12:07:28;4.40;1.00
318;DHT22;146;53.448;10.228;2023-02-26T12:09:58;4.10;1.00
318;DHT22;146;53.448;10.228;2023-02-26T12:12:43;4.00;1.00
318;DHT22;146;53.448;10.228;2023-02-26T12:15:27;4.00;1.00
318;DHT22;146;53.448;10.228;2023-02-26T12:18:22;3.90;1.00
318;DHT22;146;53.448;10.228;2023-02-26T12:21:13;4.10;1.00
318;DHT22;146;53.448;10.228;2023-02-26T12:24:21;4.10;1.00
318;DHT22;146;53.448;10.228;2023-02-26T12:27:00;4.50;1.00
318;DHT22;146;53.448;10.228;2023-02-26T12:29:42;4.80;1.00
318;DHT22;146;53.448;10.228;2023-02-26T12:32:29;5.10;1.00
318;DHT22;146;53.448;10.228;2023-02-26T12:35:31;5.10;1.00
318;DHT22;146;53.448;10.228;2023-02-26T12:38:08;5.00;1.00
318;DHT22;146;53.448;10.228;2023-02-26T12:41:18;4.80;1.00
318;DHT22;146;53.448;10.228;2023-02-26T12:43:55;4.80;1.00
318;DHT22;146;53.448;10.228;2023-02-26T12:46:42;4.80;1.00
318;DHT22;146;53.448;10.228;2023-02-26T12:49:42;4.80;1.00
318;DHT22;146;53.448;10.228;2023-02-26T12:52:41;4.50;1.00
318;DHT22;146;53.448;10.228;2023-02-26T12:55:17;4.40;1.00
318;DHT22;146;53.448;10.228;2023-02-26T13:06:54;4.40;1.00
318;DHT22;146;53.448;10.228;2023-02-26T13:09:33;4.40;1.00
318;DHT22;146;53.448;10.228;2023-02-26T13:12:12;4.40;1.00
318;DHT22;146;53.448;10.228;2023-02-26T13:14:48;4.40;1.00
318;DHT22;146;53.448;10.228;2023-02-26T13:17:23;4.50;1.00
318;DHT22;146;53.448;10.228;2023-02-26T13:19:56;4.40;1.00
318;DHT22;146;53.448;10.228;2023-02-26T13:22:27;4.50;1.00
318;DHT22;146;53.448;10.228;2023-02-26T13:25:01;4.60;1.00
318;DHT22;146;53.448;10.228;2023-02-26T13:27:32;4.70;1.00
318;DHT22;146;53.448;10.228;2023-02-26T13:30:19;4.80;1.00
318;DHT22;146;53.448;10.228;2023-02-26T13:32:50;5.00;1.00
318;DHT22;146;53.448;10.228;2023-02-26T13:35:21;5.10;1.00
318;DHT22;146;53.448;10.228;2023-02-26T13:37:53;5.30;1.00
318;DHT22;146;53.448;10.228;2023-02-26T13:40:39;5.40;1.00
318;DHT22;146;53.448;10.228;2023-02-26T13:43:18;5.60;1.00
318;DHT22;146;53.448;10.228;2023-02-26T13:46:04;5.50;1.00
318;DHT22;146;53.448;10.228;2023-02-26T13:48:41;5.60;1.00
318;DHT22;146;53.448;10.228;2023-02-26T13:51:16;5.40;1.00
318;DHT22;146;53.448;10.228;2023-02-26T13:53:53;5.40;1.00
318;DHT22;146;53.448;10.228;2023-02-26T13:56:42;5.30;1.00
318;DHT22;146;53.448;10.228;2023-02-26T13:59:37;5.30;1.00
318;DHT22;146;53.448;10.228;2023-02-26T14:02:51;5.40;1.00
318;DHT22;146;53.448;10.228;2023-02-26T14:08:48;5.50;1.00
318;DHT22;146;53.448;10.228;2023-02-26T14:11:45;5.30;1.00
318;DHT22;146;53.448;10.228;2023-02-26T14:14:25;5.10;1.00
318;DHT22;146;53.448;10.228;2023-02-26T14:17:17;4.90;1.00
318;DHT22;146;53.448;10.228;2023-02-26T14:20:08;4.80;1.00
318;DHT22;146;53.448;10.228;2023-02-26T14:22:50;4.70;1.00
318;DHT22;146;53.448;10.228;2023-02-26T14:25:20;4.70;1.00
318;DHT22;146;53.448;10.228;2023-02-26T14:28:36;4.60;1.00
318;DHT22;146;53.448;10.228;2023-02-26T14:31:15;4.70;1.00
318;DHT22;146;53.448;10.228;2023-02-26T14:33:59;4.80;1.00
318;DHT22;146;53.448;10.228;2023-02-26T14:36:37;4.90;1.00
318;DHT22;146;53.448;10.228;2023-02-26T14:39:06;4.80;1.00
318;DHT22;146;53.448;10.228;2023-02-26T14:41:41;4.90;1.00
318;DHT22;146;53.448;10.228;2023-02-26T14:44:14;5.00;1.00
318;DHT22;146;53.448;10.228;2023-02-26T14:46:42;5.10;1.00
318;DHT22;146;53.448;10.228;2023-02-26T14:49:20;5.10;1.00
318;DHT22;146;53.448;10.228;2023-02-26T14:54:59;5.00;1.00
318;DHT22;146;53.448;10.228;2023-02-26T14:57:39;4.90;1.00
318;DHT22;146;53.448;10.228;2023-02-26T15:00:25;4.90;1.00
318;DHT22;146;53.448;10.228;2023-02-26T15:03:24;4.90;1.00
318;DHT22;146;53.448;10.228;2023-02-26T15:06:07;4.80;1.00
318;DHT22;146;53.448;10.228;2023-02-26T15:08:50;4.80;1.00
318;DHT22;146;53.448;10.228;2023-02-26T15:11:38;4.70;1.00
318;DHT22;146;53.448;10.228;2023-02-26T15:17:29;4.60;1.00
318;DHT22;146;53.448;10.228;2023-02-26T15:20:08;4.60;1.00
318;DHT22;146;53.448;10.228;2023-02-26T15:22:57;4.60;1.00
318;DHT22;146;53.448;10.228;2023-02-26T15:25:32;4.60;1.00
318;DHT22;146;53.448;10.228;2023-02-26T15:28:00;4.70;1.00
318;DHT22;146;53.448;10.228;2023-02-26T15:30:30;4.70;1.00
318;DHT22;146;53.448;10.228;2023-02-26T15:32:59;4.60;1.00
318;DHT22;146;53.448;10.228;2023-02-26T15:35:32;4.60;1.00
318;DHT22;146;53.448;10.228;2023-02-26T15:38:01;4.60;1.00
318;DHT22;146;53.448;10.228;2023-02-26T15:40:33;4.50;1.00
318;DHT22;146;53.448;10.228;2023-02-26T15:43:06;4.50;1.00
318;DHT22;146;53.448;10.228;2023-02-26T15:45:36;4.40;1.00
318;DHT22;146;53.448;10.228;2023-02-26T15:48:07;4.30;1.00
318;DHT22;146;53.448;10.228;2023-02-26T15:50:36;4.30;1.00
318;DHT22;146;53.448;10.228;2023-02-26T15:53:09;4.20;1.00
318;DHT22;146;53.448;10.228;2023-02-26T15:55:44;4.10;1.00
318;DHT22;146;53.448;10.228;2023-02-26T15:58:18;4.00;1.00
318;DHT22;146;53.448;10.228;2023-02-26T16:00:55;3.90;1.00
318;DHT22;146;53.448;10.228;2023-02-26T16:03:31;3.90;1.00
318;DHT22;146;53.448;10.228;2023-02-26T16:05:58;4.00;1.00
318;DHT22;146;53.448;10.228;2023-02-26T16:08:29;4.00;1.00
318;DHT22;146;53.448;10.228;2023-02-26T16:10:59;4.00;1.00
318;DHT22;146;53.448;10.228;2023-02-26T16:13:36;3.90;1.00
318;DHT22;146;53.448;10.228;2023-02-26T16:16:16;3.90;1.00
318;DHT22;146;53.448;10.228;2023-02-26T16:18:45;3.90;1.00
318;DHT22;146;53.448;10.228;2023-02-26T16:21:21;3.80;1.00
318;DHT22;146;53.448;10.228;2023-02-26T16:23:50;3.80;1.00
318;DHT22;146;53.448;10.228;2023-02-26T16:26:27;3.70;1.00
318;DHT22;146;53.448;10.228;2023-02-26T16:28:58;3.80;1.00
318;DHT22;146;53.448;10.228;2023-02-26T16:31:26;3.80;1.00
318;DHT22;146;53.448;10.228;2023-02-26T16:34:01;3.90;1.00
318;DHT22;146;53.448;10.228;2023-02-26T16:36:30;3.90;1.00
318;DHT22;146;53.448;10.228;2023-02-26T16:39:12;3.70;1.00
318;DHT22;146;53.448;10.228;2023-02-26T16:41:46;3.60;1.00
318;DHT22;146;53.448;10.228;2023-02-26T16:44:36;3.60;1.00
318;DHT22;146;53.448;10.228;2023-02-26T16:47:08;3.50;1.00
318;DHT22;146;53.448;10.228;2023-02-26T16:49:43;3.50;1.00
318;DHT22;146;53.448;10.228;2023-02-26T16:52:16;3.50;1.00
318;DHT22;146;53.448;10.228;2023-02-26T16:54:53;3.60;1.00
318;DHT22;146;53.448;10.228;2023-02-26T16:57:34;3.60;1.00
318;DHT22;146;53.448;10.228;2023-02-26T17:00:05;3.60;1.00
318;DHT22;146;53.448;10.228;2023-02-26T17:02:35;3.80;1.00
318;DHT22;146;53.448;10.228;2023-02-26T17:05:16;3.80;1.00
318;DHT22;146;53.448;10.228;2023-02-26T17:07:47;3.80;1.00
318;DHT22;146;53.448;10.228;2023-02-26T17:10:21;3.60;1.00
318;DHT22;146;53.448;10.228;2023-02-26T17:12:52;3.50;1.00
318;DHT22;146;53.448;10.228;2023-02-26T17:15:30;3.30;1.00
318;DHT22;146;53.448;10.228;2023-02-26T17:17:58;3.20;1.00
318;DHT22;146;53.448;10.228;2023-02-26T17:20:29;3.00;1.00
318;DHT22;146;53.448;10.228;2023-02-26T17:22:58;2.90;1.00
318;DHT22;146;53.448;10.228;2023-02-26T17:25:29;2.80;1.00
318;DHT22;146;53.448;10.228;2023-02-26T17:27:58;2.80;1.00
318;DHT22;146;53.448;10.228;2023-02-26T17:30:26;2.80;1.00
318;DHT22;146;53.448;10.228;2023-02-26T17:32:56;2.70;1.00
318;DHT22;146;53.448;10.228;2023-02-26T17:35:23;2.70;1.00
318;DHT22;146;53.448;10.228;2023-02-26T17:37:52;2.60;1.00
318;DHT22;146;53.448;10.228;2023-02-26T17:40:21;2.60;1.00
318;DHT22;146;53.448;10.228;2023-02-26T17:42:49;2.70;1.00
318;DHT22;146;53.448;10.228;2023-02-26T17:45:16;2.80;1.00
318;DHT22;146;53.448;10.228;2023-02-26T17:47:47;2.80;1.00
318;DHT22;146;53.448;10.228;2023-02-26T17:50:22;2.80;1.00
318;DHT22;146;53.448;10.228;2023-02-26T17:52:51;2.80;1.00
318;DHT22;146;53.448;10.228;2023-02-26T17:55:18;2.80;1.00